Terminal Aerodrome Forecast
Issued by NWS Charleston, WV

Home | Current Version | Previous Version | Text Only | Print | Product List | Glossary On
Versions: 1 2 3 4 5 6 7 8 9 10 11 12 13 14 15 16 17 18 19 20 21 22 23 24 25 26 27
000
FTUS41 KRLX 220800 AAA
TAFCRW
TAF AMD
KCRW 220801Z 2208/2306 30005KT P6SM SCT025 BKN035
     FM220900 30005KT P6SM BKN025
     FM221100 30004KT P6SM BKN015
     FM221700 30005KT P6SM BKN025
     FM222000 30005KT P6SM SCT035
     FM230000 00000KT P6SM FEW035=

USA.gov is the U.S. government's official web portal to all federal, state and local government web resources and services.